Time;durP1;ratioP1;P1;durP2;ratioP2;P2;SDS_P1;SDS_P2;PMS_P1;PMS_P2;Temp;Humidity;BMP_temperature;BMP_pressure;BME280_temperature;BME280_humidity;BME280_pressure;Samples;Min_cycle;Max_cycle;Signal;HPM_P1;HPM_P2
2021/06/04 00:00:18;;;;;;;1.20;0.73;;;;;;;28.36;20.10;98994.50;5095924;28;20032;-85
2021/06/04 00:02:45;;;;;;;1.48;0.63;;;;;;;28.08;20.21;98993.16;5094660;28;20054;-85
2021/06/04 00:05:12;;;;;;;0.85;0.70;;;;;;;28.20;19.81;98994.50;5076751;28;20063;-86
2021/06/04 00:07:39;;;;;;;1.60;0.80;;;;;;;28.31;20.31;98995.03;5074342;28;20447;-85
2021/06/04 00:10:15;;;;;;;1.10;0.93;;;;;;;28.30;19.95;98992.66;5094711;28;20036;-85
2021/06/04 00:12:41;;;;;;;0.60;0.60;;;;;;;28.29;20.00;98986.19;5095533;28;20028;-85
2021/06/04 00:15:15;;;;;;;0.90;0.70;;;;;;;28.38;19.84;98991.25;5095637;28;20035;-85
2021/06/04 00:17:43;;;;;;;1.05;0.60;;;;;;;28.33;19.86;98986.94;5096034;28;20107;-85
2021/06/04 00:20:17;;;;;;;0.88;0.77;;;;;;;28.35;19.36;98989.31;5095343;28;20048;-86
2021/06/04 00:22:43;;;;;;;1.05;0.73;;;;;;;28.49;19.13;98984.09;5095810;28;20077;-86
2021/06/04 00:25:10;;;;;;;1.05;0.95;;;;;;;28.63;19.03;98985.78;5094251;28;20101;-85
2021/06/04 00:27:36;;;;;;;1.13;0.80;;;;;;;28.64;18.94;98990.97;5095605;28;20032;-86
2021/06/04 00:30:06;;;;;;;2.60;0.80;;;;;;;28.57;19.13;98990.34;5095703;28;20044;-86
2021/06/04 00:32:32;;;;;;;1.77;0.87;;;;;;;28.33;19.34;98991.78;5095128;28;20028;-85
2021/06/04 00:34:59;;;;;;;1.05;0.93;;;;;;;28.01;20.42;98986.88;5095270;28;20032;-85
2021/06/04 00:37:25;;;;;;;1.05;0.85;;;;;;;27.66;19.95;98993.31;5095111;28;20085;-85
2021/06/04 00:39:51;;;;;;;0.88;0.77;;;;;;;27.81;19.97;98989.75;5093952;28;20149;-85
2021/06/04 00:42:22;;;;;;;1.92;0.80;;;;;;;27.92;19.52;98989.50;5094935;28;20035;-85
2021/06/04 00:44:51;;;;;;;0.98;0.70;;;;;;;27.87;19.44;98993.63;5095184;28;20024;-85
2021/06/04 00:47:18;;;;;;;0.95;0.75;;;;;;;27.85;19.91;98993.28;5094942;28;20051;-85
2021/06/04 00:49:44;;;;;;;0.80;0.70;;;;;;;27.78;19.59;98993.44;5094844;28;20028;-85
2021/06/04 00:52:16;;;;;;;1.23;1.00;;;;;;;27.82;19.43;98990.56;5094965;28;20035;-85
2021/06/04 00:54:44;;;;;;;0.85;0.70;;;;;;;27.98;19.64;98994.19;5094968;28;20036;-85
2021/06/04 00:57:11;;;;;;;1.17;0.80;;;;;;;27.67;19.97;98998.53;5094863;28;20119;-85
2021/06/04 00:59:39;;;;;;;1.75;0.80;;;;;;;27.32;20.58;98997.25;5094539;28;20032;-85
2021/06/04 01:02:14;;;;;;;2.22;0.88;;;;;;;27.18;20.04;98997.53;5092273;28;20111;-85
2021/06/04 01:04:41;;;;;;;0.93;0.63;;;;;;;27.25;20.00;98997.38;5074748;28;20086;-85
2021/06/04 01:07:16;;;;;;;1.48;0.93;;;;;;;27.40;19.67;98998.69;5092505;28;20036;-85
2021/06/04 01:09:59;;;;;;;1.20;0.77;;;;;;;27.66;19.25;98994.09;5094471;28;20043;-85
2021/06/04 01:12:52;;;;;;;2.00;0.60;;;;;;;27.75;19.21;98997.13;5094907;28;20468;-85
2021/06/04 01:15:45;;;;;;;0.85;0.50;;;;;;;27.90;19.04;98991.97;5094786;28;20076;-85
2021/06/04 01:18:28;;;;;;;1.00;0.73;;;;;;;28.04;18.67;98994.50;5094446;28;20032;-85
2021/06/04 01:21:00;;;;;;;1.50;0.77;;;;;;;27.59;19.36;98999.91;5094636;28;20028;-85
2021/06/04 01:24:01;;;;;;;0.82;0.80;;;;;;;27.34;19.74;98996.78;5094280;28;20052;-85
2021/06/04 01:26:30;;;;;;;1.20;0.85;;;;;;;27.47;19.54;98996.97;5087258;28;20040;-85
2021/06/04 01:29:02;;;;;;;0.85;0.77;;;;;;;27.08;20.49;99000.53;5094808;28;20035;-85
2021/06/04 01:31:39;;;;;;;1.27;0.63;;;;;;;26.50;20.65;98996.34;5095018;28;20380;-85
2021/06/04 01:34:28;;;;;;;0.50;0.50;;;;;;;26.61;20.44;98994.94;5094228;28;20028;-85
2021/06/04 01:36:58;;;;;;;1.02;0.75;;;;;;;27.03;19.76;98984.13;5094456;28;20028;-85
2021/06/04 01:39:41;;;;;;;0.60;0.50;;;;;;;27.02;20.04;98991.81;5093798;28;20059;-85
2021/06/04 01:42:10;;;;;;;0.85;0.60;;;;;;;27.07;20.13;98994.09;5094132;28;20494;-85
2021/06/04 01:44:43;;;;;;;0.80;0.70;;;;;;;27.23;19.65;98982.13;5094316;28;20073;-85
2021/06/04 01:47:27;;;;;;;1.33;0.68;;;;;;;27.38;18.97;98978.59;5094024;28;20036;-85
2021/06/04 01:49:57;;;;;;;0.90;0.70;;;;;;;27.45;19.60;98980.47;5093931;28;20475;-84
2021/06/04 01:52:29;;;;;;;0.80;0.63;;;;;;;27.36;19.48;98983.84;5093945;28;20028;-84
2021/06/04 01:55:07;;;;;;;0.80;0.80;;;;;;;27.25;19.94;98986.09;5093705;28;20472;-84
2021/06/04 01:57:53;;;;;;;1.15;0.63;;;;;;;26.88;20.51;98988.47;5093785;28;20059;-84
2021/06/04 02:00:30;;;;;;;0.70;0.60;;;;;;;26.53;21.19;98996.31;5093979;28;20089;-84
2021/06/04 02:02:57;;;;;;;3.35;0.88;;;;;;;26.49;21.09;98986.34;5073367;28;20033;-84
2021/06/04 02:05:30;;;;;;;0.90;0.70;;;;;;;26.72;20.35;99004.00;5073770;28;20426;-84
2021/06/04 02:07:57;;;;;;;1.67;0.70;;;;;;;27.06;20.44;98989.72;5075896;28;20062;-84
2021/06/04 02:10:36;;;;;;;0.60;0.60;;;;;;;27.32;19.79;98988.78;5090091;28;20123;-84
2021/06/04 02:13:08;;;;;;;0.77;0.70;;;;;;;27.39;19.50;98994.31;5093412;28;20511;-84
2021/06/04 02:15:39;;;;;;;1.50;1.27;;;;;;;27.21;19.67;98990.22;5091987;28;20068;-84
2021/06/04 02:18:26;;;;;;;1.55;0.80;;;;;;;27.22;19.73;98988.97;5093120;28;20070;-84
2021/06/04 02:21:02;;;;;;;1.02;0.90;;;;;;;27.41;19.32;98985.41;5093612;28;20055;-84
2021/06/04 02:24:04;;;;;;;0.88;0.63;;;;;;;27.51;19.48;98983.59;5093120;28;20036;-84
2021/06/04 02:26:52;;;;;;;0.60;0.60;;;;;;;27.28;19.54;98979.56;5093538;28;20036;-84
2021/06/04 02:29:25;;;;;;;2.35;1.00;;;;;;;27.09;19.68;98988.84;5093394;28;20085;-85
2021/06/04 02:32:00;;;;;;;0.73;0.73;;;;;;;26.85;20.33;98992.13;5093314;28;20115;-84
2021/06/04 02:34:37;;;;;;;1.20;0.60;;;;;;;26.93;20.17;98997.22;5093516;28;20024;-84
2021/06/04 02:37:13;;;;;;;1.38;0.60;;;;;;;26.86;20.03;98985.28;5093305;28;20028;-85
2021/06/04 02:39:53;;;;;;;3.13;0.80;;;;;;;26.97;20.34;98991.50;5091778;28;20060;-85
2021/06/04 02:42:28;;;;;;;0.80;0.70;;;;;;;27.25;20.38;98985.31;5093272;28;20038;-85
2021/06/04 02:45:16;;;;;;;0.60;0.60;;;;;;;27.17;20.02;98987.47;5093260;28;20024;-84
2021/06/04 02:47:47;;;;;;;1.02;0.80;;;;;;;26.95;20.78;98991.94;5082078;28;20052;-84
2021/06/04 02:50:21;;;;;;;0.60;0.60;;;;;;;26.57;21.25;98991.41;5091943;28;20032;-85
2021/06/04 02:52:48;;;;;;;1.30;0.80;;;;;;;26.79;21.09;98988.22;5093110;28;20426;-85
2021/06/04 02:55:44;;;;;;;0.73;0.50;;;;;;;26.79;20.65;98991.06;5093147;28;20063;-84
2021/06/04 02:58:10;;;;;;;1.92;0.70;;;;;;;26.83;20.76;98991.78;5093378;28;20388;-84
2021/06/04 03:00:41;;;;;;;0.52;0.47;;;;;;;27.11;20.20;98991.22;5081349;28;20554;-85
2021/06/04 03:03:08;;;;;;;0.68;0.68;;;;;;;27.37;19.83;98988.31;5073153;28;20108;-84
2021/06/04 03:05:40;;;;;;;0.63;0.52;;;;;;;27.34;19.82;98993.97;5085853;28;20056;-84
2021/06/04 03:08:07;;;;;;;0.82;0.55;;;;;;;27.58;19.50;98992.69;5092817;28;20075;-85
2021/06/04 03:10:47;;;;;;;1.25;0.75;;;;;;;27.78;19.30;99001.09;5092804;28;20070;-85
2021/06/04 03:13:17;;;;;;;0.70;0.68;;;;;;;27.59;19.39;98999.09;5093248;28;20383;-84
2021/06/04 03:15:47;;;;;;;1.00;0.73;;;;;;;27.69;19.29;98998.09;5093195;28;20028;-85
2021/06/04 03:18:18;;;;;;;0.57;0.52;;;;;;;27.77;19.29;98993.88;5092662;28;20044;-85
2021/06/04 03:20:46;;;;;;;0.70;0.60;;;;;;;27.52;19.69;98994.41;5092766;28;20055;-84
2021/06/04 03:23:20;;;;;;;0.95;0.70;;;;;;;27.13;20.79;99012.13;5096506;28;20028;-84
2021/06/04 03:25:50;;;;;;;2.00;0.60;;;;;;;26.79;21.63;99003.13;5096648;28;20024;-84
2021/06/04 03:28:21;;;;;;;1.13;0.68;;;;;;;26.78;22.00;98998.69;5096644;28;20028;-84
2021/06/04 03:30:48;;;;;;;0.90;0.77;;;;;;;27.27;21.05;98994.13;5096822;28;20031;-84
2021/06/04 03:33:18;;;;;;;0.98;0.80;;;;;;;28.35;20.53;98995.75;5096751;28;20032;-84
2021/06/04 03:35:45;;;;;;;0.70;0.60;;;;;;;29.33;19.92;98997.22;5096584;28;20021;-84
2021/06/04 03:38:12;;;;;;;0.57;0.57;;;;;;;30.03;18.93;98999.94;5096406;28;20064;-84
2021/06/04 03:40:38;;;;;;;3.90;0.82;;;;;;;30.59;19.12;99000.16;5096241;28;20073;-84
2021/06/04 03:43:08;;;;;;;2.67;1.02;;;;;;;30.60;19.29;99001.72;5096532;28;20035;-84
2021/06/04 03:45:39;;;;;;;1.20;0.80;;;;;;;30.42;19.40;98999.50;5096238;28;20480;-84
2021/06/04 03:48:08;;;;;;;1.05;1.05;;;;;;;30.51;19.41;98996.75;5096228;28;20105;-85
2021/06/04 03:50:35;;;;;;;1.20;1.10;;;;;;;30.46;19.87;99000.16;5096034;28;20028;-85
2021/06/04 03:53:03;;;;;;;1.20;1.10;;;;;;;30.50;19.72;99003.66;5096152;28;20032;-85
2021/06/04 03:55:29;;;;;;;0.98;0.82;;;;;;;30.63;20.02;99003.66;5096037;28;20445;-85
2021/06/04 03:57:55;;;;;;;1.63;0.95;;;;;;;31.03;19.85;99001.88;5095511;28;20419;-85
2021/06/04 04:00:41;;;;;;;1.02;0.80;;;;;;;31.26;19.74;99001.44;5075721;28;20032;-85
2021/06/04 04:03:08;;;;;;;1.27;0.82;;;;;;;31.51;19.50;99008.25;5075866;28;20033;-85
2021/06/04 04:05:34;;;;;;;1.60;0.98;;;;;;;31.83;19.12;99000.09;5075530;28;20024;-86
2021/06/04 04:08:01;;;;;;;1.45;0.90;;;;;;;32.05;19.21;99003.69;5075606;28;20028;-85
2021/06/04 04:10:28;;;;;;;1.98;1.02;;;;;;;32.27;18.76;98994.31;5076351;28;20037;-85
2021/06/04 04:12:55;;;;;;;1.40;1.05;;;;;;;32.58;18.33;98995.06;5095925;28;20107;-85
2021/06/04 04:15:24;;;;;;;1.65;1.27;;;;;;;32.21;18.44;98996.97;5096213;28;20032;-85
2021/06/04 04:17:53;;;;;;;1.25;1.00;;;;;;;31.85;19.33;99003.25;5095661;28;20040;-85
2021/06/04 04:20:26;;;;;;;1.30;1.20;;;;;;;31.68;19.36;99001.09;5095201;28;20080;-86
2021/06/04 04:22:53;;;;;;;1.98;1.40;;;;;;;31.63;19.98;99011.00;5095780;28;20085;-85
2021/06/04 04:25:20;;;;;;;6.30;1.70;;;;;;;31.45;20.19;99008.06;5095822;28;20043;-86
2021/06/04 04:27:46;;;;;;;1.90;1.10;;;;;;;31.73;19.69;98995.63;5095729;28;20081;-85
2021/06/04 04:30:15;;;;;;;1.70;1.13;;;;;;;31.93;19.43;98998.06;5095414;28;20494;-86
2021/06/04 04:32:42;;;;;;;1.67;1.15;;;;;;;31.98;19.53;98989.78;5094869;28;20030;-85
2021/06/04 04:35:12;;;;;;;2.10;1.30;;;;;;;32.05;19.25;98986.66;5095107;28;20112;-85
2021/06/04 04:37:38;;;;;;;0.93;0.90;;;;;;;32.16;19.04;98997.56;5095788;28;20493;-86
2021/06/04 04:40:06;;;;;;;1.45;0.93;;;;;;;32.16;18.54;98991.88;5095134;28;20043;-86
2021/06/04 04:42:32;;;;;;;1.00;0.90;;;;;;;32.41;19.20;99003.03;5095575;28;20505;-86
2021/06/04 04:44:58;;;;;;;5.43;1.25;;;;;;;32.58;19.18;98997.91;5095206;28;20024;-86
2021/06/04 04:47:25;;;;;;;0.95;0.80;;;;;;;32.91;19.40;98995.28;5094608;28;20480;-85
2021/06/04 04:49:52;;;;;;;1.67;0.95;;;;;;;32.90;18.55;99002.22;5093877;28;20488;-87
2021/06/04 04:52:19;;;;;;;2.75;1.10;;;;;;;32.93;18.81;99002.03;5095079;28;20121;-87
2021/06/04 04:54:56;;;;;;;0.77;0.75;;;;;;;32.89;19.04;99001.41;5094917;28;20499;-86
2021/06/04 04:57:25;;;;;;;1.65;0.93;;;;;;;32.92;18.83;98997.63;5088418;28;20055;-86
2021/06/04 04:59:51;;;;;;;0.80;0.80;;;;;;;32.90;19.33;98999.38;5085874;28;20035;-86
2021/06/04 05:02:17;;;;;;;1.42;0.80;;;;;;;32.82;18.84;99000.94;5094484;28;20071;-86
2021/06/04 05:04:44;;;;;;;1.23;1.02;;;;;;;32.90;18.38;99005.84;5094671;28;20060;-86
2021/06/04 05:07:10;;;;;;;0.88;0.80;;;;;;;32.75;18.74;99004.88;5094959;28;20035;-87
2021/06/04 05:09:37;;;;;;;1.05;0.95;;;;;;;32.83;18.96;99005.38;5094643;28;20024;-87
2021/06/04 05:12:03;;;;;;;1.05;0.85;;;;;;;32.99;19.54;99007.91;5094498;28;20441;-87
2021/06/04 05:14:30;;;;;;;1.40;0.80;;;;;;;33.07;18.11;99012.06;5094938;28;20436;-86
2021/06/04 05:16:56;;;;;;;0.82;0.80;;;;;;;33.15;18.33;99013.31;5094179;28;20483;-87
2021/06/04 05:19:22;;;;;;;0.80;0.80;;;;;;;33.06;18.35;99010.47;5094330;28;20517;-86
2021/06/04 05:21:48;;;;;;;1.73;0.82;;;;;;;33.15;18.76;99010.47;5094294;28;20138;-86
2021/06/04 05:24:17;;;;;;;1.00;0.90;;;;;;;33.37;18.50;99006.19;5094659;28;20387;-86
2021/06/04 05:26:43;;;;;;;1.48;0.95;;;;;;;33.66;18.14;99011.41;5094380;28;20476;-86
2021/06/04 05:29:09;;;;;;;1.02;0.70;;;;;;;33.50;19.45;99005.22;5093098;28;20032;-86
2021/06/04 05:31:38;;;;;;;2.05;0.88;;;;;;;33.18;19.38;99012.38;5094287;28;20020;-86
2021/06/04 05:34:05;;;;;;;0.82;0.80;;;;;;;33.25;18.50;99007.16;5094229;28;20027;-87
2021/06/04 05:36:33;;;;;;;0.63;0.63;;;;;;;33.40;19.29;99008.09;5094218;28;20028;-86
2021/06/04 05:39:10;;;;;;;0.95;0.73;;;;;;;33.84;18.86;99014.19;5093931;28;20115;-86
2021/06/04 05:41:38;;;;;;;1.23;0.77;;;;;;;34.15;18.46;99010.31;5094301;28;20535;-86
2021/06/04 05:44:04;;;;;;;0.80;0.70;;;;;;;34.38;18.55;99009.59;5093816;28;20028;-86
2021/06/04 05:46:31;;;;;;;1.23;0.90;;;;;;;34.51;17.98;99010.16;5093539;28;20086;-87
2021/06/04 05:48:57;;;;;;;0.70;0.70;;;;;;;34.96;18.31;99009.88;5093917;28;20042;-86
2021/06/04 05:51:29;;;;;;;1.00;0.80;;;;;;;34.86;17.59;99013.28;5094137;28;20027;-87
2021/06/04 05:53:56;;;;;;;1.10;0.70;;;;;;;34.95;17.82;99010.38;5094239;28;20422;-86
2021/06/04 05:56:24;;;;;;;0.88;0.63;;;;;;;34.91;17.90;99018.34;5083826;28;20077;-87
2021/06/04 05:58:51;;;;;;;0.68;0.68;;;;;;;34.76;17.85;99018.28;5073684;28;20032;-86
2021/06/04 06:01:24;;;;;;;0.85;0.68;;;;;;;35.03;18.05;99014.47;5073598;28;20032;-87
2021/06/04 06:03:51;;;;;;;0.80;0.65;;;;;;;34.97;17.00;99013.53;5073425;28;20036;-86
2021/06/04 06:06:17;;;;;;;0.60;0.50;;;;;;;35.42;17.12;99016.03;5073828;28;20032;-87
2021/06/04 06:08:44;;;;;;;0.50;0.50;;;;;;;34.68;17.71;99017.84;5073531;28;20050;-86
2021/06/04 06:11:12;;;;;;;0.88;0.60;;;;;;;35.21;17.65;99023.69;5079762;28;20403;-87
2021/06/04 06:13:39;;;;;;;2.60;0.77;;;;;;;35.48;17.15;99024.69;5093954;28;20448;-87
2021/06/04 06:16:07;;;;;;;0.50;0.50;;;;;;;35.82;16.48;99024.09;5092090;28;20036;-87
2021/06/04 06:18:34;;;;;;;0.80;0.70;;;;;;;34.92;16.90;99015.00;5093337;28;20050;-87
2021/06/04 06:21:00;;;;;;;0.80;0.80;;;;;;;35.32;16.73;99023.09;5093371;28;20557;-87
2021/06/04 06:23:32;;;;;;;0.60;0.60;;;;;;;35.01;18.17;99011.28;5093752;28;20055;-87
2021/06/04 06:26:08;;;;;;;0.73;0.60;;;;;;;35.30;17.34;99017.91;5093799;28;20040;-87
2021/06/04 06:28:36;;;;;;;1.15;0.70;;;;;;;36.20;16.16;99021.09;5093251;28;20032;-87
2021/06/04 06:31:17;;;;;;;0.70;0.70;;;;;;;36.30;16.25;99018.94;5093241;28;20031;-87
2021/06/04 06:33:43;;;;;;;1.40;0.80;;;;;;;35.91;16.34;99019.06;5093478;28;20111;-87
2021/06/04 06:36:13;;;;;;;0.88;0.70;;;;;;;35.86;16.81;99016.88;5093644;28;20460;-87
2021/06/04 06:38:40;;;;;;;1.38;0.82;;;;;;;36.19;15.88;99021.63;5093196;28;20032;-87
2021/06/04 06:41:09;;;;;;;0.60;0.60;;;;;;;35.42;16.70;99011.13;5092400;28;20032;-87
2021/06/04 06:43:38;;;;;;;1.50;0.80;;;;;;;34.95;17.67;99016.06;5072971;28;20078;-87
2021/06/04 06:46:06;;;;;;;1.95;0.60;;;;;;;35.70;17.05;99014.53;5082157;28;20088;-87
2021/06/04 06:48:33;;;;;;;0.77;0.77;;;;;;;36.39;16.72;99011.00;5093123;28;20085;-87
2021/06/04 06:51:00;;;;;;;1.13;0.77;;;;;;;36.84;16.23;99017.41;5093155;28;20040;-87
2021/06/04 06:53:26;;;;;;;0.75;0.75;;;;;;;37.35;15.85;99015.47;5093173;28;20503;-87
2021/06/04 06:55:55;;;;;;;1.27;0.73;;;;;;;37.77;15.27;99014.91;5088773;28;20025;-88
2021/06/04 06:58:21;;;;;;;0.70;0.70;;;;;;;37.84;14.92;99014.47;5076635;28;20033;-88
2021/06/04 07:00:50;;;;;;;0.60;0.60;;;;;;;37.85;15.61;99012.41;5092650;28;20029;-88
2021/06/04 07:03:23;;;;;;;0.70;0.50;;;;;;;38.13;15.47;99004.81;5087629;28;20039;-88
2021/06/04 07:05:51;;;;;;;0.60;0.60;;;;;;;38.29;15.10;99007.06;5097191;28;20032;-88
2021/06/04 07:08:17;;;;;;;0.65;0.65;;;;;;;37.39;15.91;99016.06;5097110;28;20032;-87
2021/06/04 07:10:43;;;;;;;1.00;0.90;;;;;;;36.03;16.76;99029.44;5097149;28;20028;-87
2021/06/04 07:13:12;;;;;;;1.15;0.65;;;;;;;36.14;17.18;99023.09;5096894;28;20028;-88
2021/06/04 07:15:40;;;;;;;0.80;0.80;;;;;;;36.15;18.63;99026.75;5097036;28;20055;-87
2021/06/04 07:18:07;;;;;;;1.25;0.88;;;;;;;36.53;16.83;99023.72;5096945;28;20032;-88
2021/06/04 07:20:35;;;;;;;1.40;0.73;;;;;;;36.63;17.72;99030.91;5096759;28;20449;-87
2021/06/04 07:23:04;;;;;;;0.82;0.70;;;;;;;37.23;16.00;99027.31;5097084;28;20076;-88
2021/06/04 07:25:33;;;;;;;1.95;0.77;;;;;;;37.09;16.95;99028.97;5096784;28;20040;-88
2021/06/04 07:28:00;;;;;;;0.70;0.70;;;;;;;35.70;17.81;99025.16;5096570;28;20024;-88
2021/06/04 07:30:30;;;;;;;2.72;0.80;;;;;;;35.96;17.53;99026.16;5096719;28;20032;-88
2021/06/04 07:33:00;;;;;;;1.08;0.80;;;;;;;35.27;18.35;99026.63;5096684;28;20110;-88
2021/06/04 07:35:27;;;;;;;1.05;0.88;;;;;;;34.28;19.18;99025.97;5096767;28;20504;-88
2021/06/04 07:37:54;;;;;;;1.75;0.70;;;;;;;34.74;17.21;99027.31;5096381;28;20025;-88
2021/06/04 07:40:23;;;;;;;3.08;0.80;;;;;;;34.89;17.51;99032.31;5096382;28;20125;-88
2021/06/04 07:42:50;;;;;;;1.23;0.60;;;;;;;35.60;16.53;99023.66;5096311;28;20093;-88
2021/06/04 07:45:19;;;;;;;0.60;0.60;;;;;;;34.73;16.20;99019.22;5094644;28;20025;-88
2021/06/04 07:47:46;;;;;;;0.60;0.50;;;;;;;35.32;16.99;99018.19;5095384;28;20511;-88
2021/06/04 07:50:12;;;;;;;0.60;0.60;;;;;;;35.91;17.44;99018.25;5096348;28;20081;-88
2021/06/04 07:52:40;;;;;;;1.77;0.57;;;;;;;36.12;16.87;99022.81;5096243;28;20028;-88
2021/06/04 07:55:10;;;;;;;0.43;0.40;;;;;;;35.05;15.36;99015.56;5093715;28;20024;-88
2021/06/04 07:57:36;;;;;;;0.65;0.60;;;;;;;36.19;14.63;99015.91;5096245;28;20035;-89
2021/06/04 08:00:08;;;;;;;0.50;0.43;;;;;;;36.11;14.58;99023.31;5096078;28;20057;-88
2021/06/04 08:02:35;;;;;;;0.52;0.40;;;;;;;36.48;14.18;99021.59;5096023;28;20039;-89
2021/06/04 08:05:03;;;;;;;0.50;0.38;;;;;;;35.83;15.68;99012.16;5095962;28;20501;-88
2021/06/04 08:07:29;;;;;;;0.45;0.45;;;;;;;34.63;15.64;99012.03;5095500;28;20099;-88
2021/06/04 08:09:55;;;;;;;0.88;0.52;;;;;;;33.88;16.69;99014.03;5096763;28;20406;-88
2021/06/04 08:12:30;;;;;;;0.57;0.57;;;;;;;35.21;15.91;99011.47;5095315;28;20024;-88
2021/06/04 08:14:58;;;;;;;0.50;0.50;;;;;;;35.58;15.34;99012.75;5095831;28;20116;-88
2021/06/04 08:17:25;;;;;;;0.40;0.40;;;;;;;35.80;14.71;99009.50;5096091;28;20123;-89
2021/06/04 08:19:51;;;;;;;0.50;0.47;;;;;;;35.97;13.68;99013.41;5095514;28;20036;-90
2021/06/04 08:22:17;;;;;;;0.63;0.50;;;;;;;34.60;16.13;99010.94;5095819;28;20043;-89
2021/06/04 08:24:44;;;;;;;2.78;0.50;;;;;;;35.18;15.32;99006.72;5095663;28;20068;-90
2021/06/04 08:27:11;;;;;;;0.57;0.55;;;;;;;35.63;16.85;99008.41;5095167;28;20032;-89
2021/06/04 08:29:37;;;;;;;0.32;0.32;;;;;;;35.50;15.13;99002.97;5095526;28;20089;-89
2021/06/04 08:32:05;;;;;;;1.00;0.40;;;;;;;35.02;14.79;98999.41;5094797;28;20036;-88
2021/06/04 08:34:31;;;;;;;0.75;0.40;;;;;;;34.33;14.64;99001.72;5095314;28;20107;-89
2021/06/04 08:36:59;;;;;;;1.00;0.32;;;;;;;34.99;13.76;99005.25;5095400;28;20040;-88
2021/06/04 08:39:30;;;;;;;0.40;0.40;;;;;;;35.98;13.15;99004.41;5095252;28;20028;-89
2021/06/04 08:42:21;;;;;;;0.50;0.50;;;;;;;35.83;13.73;99005.63;5095266;28;20035;-90
2021/06/04 08:44:52;;;;;;;0.40;0.40;;;;;;;36.06;13.40;99002.69;5095033;28;20036;-88
2021/06/04 08:47:25;;;;;;;0.40;0.40;;;;;;;36.79;12.91;98993.13;5095307;28;20047;-89
2021/06/04 08:50:31;;;;;;;0.43;0.30;;;;;;;37.48;12.66;98992.22;5095339;28;20031;-89
2021/06/04 08:53:02;;;;;;;0.70;0.40;;;;;;;37.42;12.92;98987.69;5081737;28;20032;-89
2021/06/04 08:55:44;;;;;;;0.32;0.30;;;;;;;37.63;12.46;98990.00;5074742;28;20035;-89
2021/06/04 08:58:18;;;;;;;0.47;0.40;;;;;;;37.46;12.47;98983.31;5074856;28;20558;-89
2021/06/04 09:00:54;;;;;;;1.25;0.40;;;;;;;37.90;12.26;98986.63;5076321;28;20473;-88
2021/06/04 09:03:38;;;;;;;0.55;0.40;;;;;;;37.90;13.55;98995.22;5094347;28;20091;-88
2021/06/04 09:06:12;;;;;;;0.63;0.38;;;;;;;37.63;12.76;98992.88;5095089;28;20038;-89
2021/06/04 09:08:40;;;;;;;0.60;0.35;;;;;;;37.92;12.28;98975.47;5094517;28;20498;-89
2021/06/04 09:11:42;;;;;;;1.27;0.63;;;;;;;37.76;12.28;98981.00;5095064;28;20032;-88
2021/06/04 09:14:09;;;;;;;0.57;0.55;;;;;;;35.69;14.31;98984.34;5060517;28;20086;-89
2021/06/04 09:16:48;;;;;;;0.30;0.30;;;;;;;36.04;15.18;98990.16;5094649;28;20032;-89
2021/06/04 09:19:26;;;;;;;2.00;0.50;;;;;;;34.75;14.12;98988.16;5094038;28;20048;-89
2021/06/04 09:21:54;;;;;;;0.40;0.40;;;;;;;35.94;13.95;98986.59;5094480;28;20040;-89
2021/06/04 09:24:35;;;;;;;0.85;0.52;;;;;;;36.27;14.31;98982.75;5094267;28;20031;-90
2021/06/04 09:27:01;;;;;;;0.70;0.60;;;;;;;36.79;13.26;98978.81;5094511;28;20122;-90
2021/06/04 09:29:30;;;;;;;0.82;0.65;;;;;;;36.63;13.32;98976.53;5094493;28;20024;-89
2021/06/04 09:32:20;;;;;;;0.60;0.45;;;;;;;35.78;12.98;98977.78;5094429;28;20036;-88
2021/06/04 09:34:46;;;;;;;1.02;0.50;;;;;;;35.64;13.41;98970.75;5094345;28;20028;-89
2021/06/04 09:37:23;;;;;;;0.50;0.50;;;;;;;35.68;13.78;98974.22;5094202;28;20019;-89
2021/06/04 09:39:52;;;;;;;0.43;0.43;;;;;;;36.72;13.94;98974.31;5094969;28;20376;-90
2021/06/04 09:42:27;;;;;;;1.77;0.47;;;;;;;36.03;13.34;98977.97;5094418;28;20035;-90
2021/06/04 09:45:15;;;;;;;0.57;0.45;;;;;;;35.55;14.76;98973.72;5094220;28;20028;-90
2021/06/04 09:47:48;;;;;;;0.40;0.40;;;;;;;36.37;14.84;98972.75;5094247;28;20040;-90
2021/06/04 09:50:41;;;;;;;0.55;0.55;;;;;;;35.63;12.79;98971.25;5092868;28;20032;-89
2021/06/04 09:53:19;;;;;;;2.25;0.55;;;;;;;36.61;13.17;98968.47;5083077;28;20059;-89
2021/06/04 09:56:05;;;;;;;0.40;0.40;;;;;;;37.09;13.64;98962.28;5094160;28;20074;-89
2021/06/04 09:58:33;;;;;;;0.40;0.40;;;;;;;37.67;14.39;98956.16;5093828;28;20098;-90
2021/06/04 10:01:05;;;;;;;0.60;0.60;;;;;;;37.90;14.17;98957.19;5094137;28;20472;-89
2021/06/04 10:03:42;;;;;;;0.50;0.50;;;;;;;37.66;14.02;98954.59;5093777;28;20032;-89
2021/06/04 10:06:08;;;;;;;0.30;0.30;;;;;;;37.95;13.36;98954.34;5094103;28;20070;-89
2021/06/04 10:08:43;;;;;;;0.40;0.40;;;;;;;36.96;13.91;98951.22;5093762;28;20032;-90
2021/06/04 10:11:16;;;;;;;0.60;0.50;;;;;;;35.50;14.89;98959.31;5093565;28;20501;-89
2021/06/04 10:13:54;;;;;;;0.80;0.80;;;;;;;33.63;16.53;98954.59;5093757;28;20103;-89
2021/06/04 10:19:17;;;;;;;0.73;0.70;;;;;;;33.11;17.80;98950.06;5073452;28;20056;-89
2021/06/04 10:21:44;;;;;;;1.13;0.60;;;;;;;33.47;16.76;98950.00;5072959;28;20021;-88
2021/06/04 10:24:26;;;;;;;0.60;0.60;;;;;;;34.26;18.69;98942.94;5073303;28;20029;-89
2021/06/04 10:26:56;;;;;;;3.05;0.63;;;;;;;35.65;17.66;98943.78;5080915;28;20107;-89
2021/06/04 10:29:23;;;;;;;0.47;0.43;;;;;;;36.87;14.90;98937.03;5093808;28;20039;-89
2021/06/04 10:31:49;;;;;;;1.75;0.50;;;;;;;37.48;14.71;98934.09;5093315;28;20029;-89
2021/06/04 10:34:23;;;;;;;0.40;0.40;;;;;;;38.16;14.03;98934.94;5093687;28;20052;-90
2021/06/04 10:36:55;;;;;;;0.82;0.60;;;;;;;37.99;14.71;98936.91;5093221;28;20032;-89
2021/06/04 10:39:24;;;;;;;0.52;0.52;;;;;;;37.25;14.66;98936.72;5093457;28;20383;-88
2021/06/04 10:42:36;;;;;;;0.43;0.40;;;;;;;36.64;15.29;98929.47;5093402;28;20039;-89
2021/06/04 10:45:13;;;;;;;1.00;0.40;;;;;;;37.77;15.25;98925.22;5093058;28;20036;-89
2021/06/04 10:47:58;;;;;;;0.60;0.60;;;;;;;37.79;14.03;98919.78;5093353;28;20044;-89
2021/06/04 10:50:26;;;;;;;1.20;0.68;;;;;;;37.30;13.46;98935.97;5077970;28;20039;-89
2021/06/04 10:53:02;;;;;;;1.17;0.50;;;;;;;36.53;15.50;98920.72;5073033;28;20029;-89
2021/06/04 10:55:35;;;;;;;1.00;0.63;;;;;;;37.51;14.37;98915.91;5073346;28;20030;-89
2021/06/04 10:58:34;;;;;;;0.73;0.60;;;;;;;38.74;13.87;98919.16;5073295;28;20024;-89
2021/06/04 11:01:05;;;;;;;0.30;0.30;;;;;;;39.01;13.75;98924.19;5081461;28;20047;-90
2021/06/04 11:03:45;;;;;;;0.63;0.40;;;;;;;39.33;12.39;98933.44;5093110;28;20035;-89
2021/06/04 11:06:33;;;;;;;1.52;0.70;;;;;;;39.03;11.63;98926.53;5092891;28;20395;-89
2021/06/04 11:09:30;;;;;;;1.75;0.47;;;;;;;37.19;14.11;98918.69;5093413;28;20036;-90
2021/06/04 11:12:21;;;;;;;1.25;0.60;;;;;;;37.32;14.01;98910.47;5093143;28;20036;-89
2021/06/04 11:15:17;;;;;;;0.85;0.60;;;;;;;37.89;14.24;98903.97;5093143;28;20040;-90
2021/06/04 11:17:53;;;;;;;1.52;0.60;;;;;;;37.35;15.07;98902.94;5093057;28;20162;-90
2021/06/04 11:20:21;;;;;;;1.15;0.60;;;;;;;37.29;15.63;98911.50;5092895;28;20028;-91
2021/06/04 11:23:03;;;;;;;0.85;0.68;;;;;;;37.10;14.27;98904.53;5092952;28;20035;-89
2021/06/04 11:25:41;;;;;;;0.47;0.47;;;;;;;37.15;14.77;98903.81;5093299;28;20040;-90
2021/06/04 11:28:36;;;;;;;0.50;0.50;;;;;;;36.58;15.23;98899.97;5093000;28;20099;-89
2021/06/04 11:31:06;;;;;;;0.60;0.60;;;;;;;35.98;18.61;98906.41;5093177;28;20036;-90
2021/06/04 11:33:36;;;;;;;1.10;0.90;;;;;;;34.97;16.67;98907.91;5092572;28;20487;-91
2021/06/04 11:36:18;;;;;;;1.05;0.60;;;;;;;35.83;16.12;98914.97;5092764;28;20039;-92
2021/06/04 11:38:51;;;;;;;0.88;0.68;;;;;;;35.53;16.23;98912.63;5092733;28;20077;-91
2021/06/04 11:41:34;;;;;;;1.83;0.90;;;;;;;34.94;16.96;98912.53;5092824;28;20495;-90
2021/06/04 11:44:21;;;;;;;0.50;0.50;;;;;;;34.79;16.01;98908.06;5095216;28;20028;-90
2021/06/04 11:47:13;;;;;;;5.53;1.05;;;;;;;33.05;17.52;98895.06;5096176;28;20499;-89
2021/06/04 11:50:02;;;;;;;0.85;0.85;;;;;;;33.74;16.99;98893.00;5076974;28;20511;-89
2021/06/04 11:53:00;;;;;;;1.95;1.10;;;;;;;33.29;17.44;98899.59;5088591;28;20032;-90
2021/06/04 11:55:26;;;;;;;1.25;0.90;;;;;;;33.72;17.42;98889.06;5088039;28;20047;-90
2021/06/04 11:58:19;;;;;;;1.00;0.80;;;;;;;33.56;17.01;98890.19;5096200;28;20067;-89
2021/06/04 12:00:47;;;;;;;2.78;0.80;;;;;;;33.41;18.24;98890.09;5096589;28;20077;-89